sensor_id;sensor_type;location;lat;lon;timestamp;P1;durP1;ratioP1;P2;durP2;ratioP2
5630;SDS011;2837;50.990;7.124;2022-11-15T06:00:26;153.73;;;8.27;;
5630;SDS011;2837;50.990;7.124;2022-11-15T06:02:51;154.70;;;8.30;;
5630;SDS011;2837;50.990;7.124;2022-11-15T06:05:17;153.40;;;7.90;;
5630;SDS011;2837;50.990;7.124;2022-11-15T06:07:42;153.37;;;7.80;;
5630;SDS011;2837;50.990;7.124;2022-11-15T06:10:09;153.47;;;7.63;;
5630;SDS011;2837;50.990;7.124;2022-11-15T06:12:34;152.37;;;7.47;;
5630;SDS011;2837;50.990;7.124;2022-11-15T06:15:00;157.07;;;7.57;;
5630;SDS011;2837;50.990;7.124;2022-11-15T06:17:25;153.40;;;8.33;;
5630;SDS011;2837;50.990;7.124;2022-11-15T06:19:51;152.37;;;7.50;;
5630;SDS011;2837;50.990;7.124;2022-11-15T06:22:16;154.33;;;7.37;;
5630;SDS011;2837;50.990;7.124;2022-11-15T06:24:42;153.30;;;8.10;;
5630;SDS011;2837;50.990;7.124;2022-11-15T06:27:08;154.20;;;7.93;;
5630;SDS011;2837;50.990;7.124;2022-11-15T06:29:35;155.10;;;7.97;;
5630;SDS011;2837;50.990;7.124;2022-11-15T06:32:01;153.47;;;7.73;;
5630;SDS011;2837;50.990;7.124;2022-11-15T06:34:26;153.57;;;7.50;;
5630;SDS011;2837;50.990;7.124;2022-11-15T06:36:52;154.57;;;8.10;;
5630;SDS011;2837;50.990;7.124;2022-11-15T06:39:17;157.10;;;7.80;;
5630;SDS011;2837;50.990;7.124;2022-11-15T06:41:43;153.03;;;8.00;;
5630;SDS011;2837;50.990;7.124;2022-11-15T06:44:08;159.77;;;7.47;;
5630;SDS011;2837;50.990;7.124;2022-11-15T06:46:34;153.77;;;8.10;;
5630;SDS011;2837;50.990;7.124;2022-11-15T06:48:59;154.30;;;8.50;;
5630;SDS011;2837;50.990;7.124;2022-11-15T06:51:25;153.57;;;8.00;;
5630;SDS011;2837;50.990;7.124;2022-11-15T06:53:50;153.67;;;8.20;;
5630;SDS011;2837;50.990;7.124;2022-11-15T06:56:16;153.83;;;7.80;;
5630;SDS011;2837;50.990;7.124;2022-11-15T06:58:42;153.77;;;8.10;;
5630;SDS011;2837;50.990;7.124;2022-11-15T07:01:08;153.70;;;7.90;;
5630;SDS011;2837;50.990;7.124;2022-11-15T07:03:36;153.57;;;7.70;;
5630;SDS011;2837;50.990;7.124;2022-11-15T07:06:03;153.47;;;7.67;;
5630;SDS011;2837;50.990;7.124;2022-11-15T07:08:29;154.40;;;8.30;;
5630;SDS011;2837;50.990;7.124;2022-11-15T07:10:59;153.03;;;7.60;;
5630;SDS011;2837;50.990;7.124;2022-11-15T07:13:27;153.30;;;8.00;;
5630;SDS011;2837;50.990;7.124;2022-11-15T07:15:53;153.60;;;7.70;;
5630;SDS011;2837;50.990;7.124;2022-11-15T07:18:19;153.30;;;7.50;;
5630;SDS011;2837;50.990;7.124;2022-11-15T07:20:44;153.80;;;8.27;;
5630;SDS011;2837;50.990;7.124;2022-11-15T07:23:10;155.00;;;7.93;;
5630;SDS011;2837;50.990;7.124;2022-11-15T07:25:36;153.63;;;7.97;;
5630;SDS011;2837;50.990;7.124;2022-11-15T07:28:01;153.47;;;7.97;;
5630;SDS011;2837;50.990;7.124;2022-11-15T07:30:28;153.77;;;8.07;;
5630;SDS011;2837;50.990;7.124;2022-11-15T07:32:54;153.60;;;7.70;;
5630;SDS011;2837;50.990;7.124;2022-11-15T07:35:21;153.97;;;7.97;;
5630;SDS011;2837;50.990;7.124;2022-11-15T07:38:20;153.57;;;7.70;;
5630;SDS011;2837;50.990;7.124;2022-11-15T07:40:40;154.07;;;7.87;;
5630;SDS011;2837;50.990;7.124;2022-11-15T07:43:06;152.77;;;7.40;;
5630;SDS011;2837;50.990;7.124;2022-11-15T07:45:32;153.50;;;8.00;;
5630;SDS011;2837;50.990;7.124;2022-11-15T07:48:00;153.50;;;7.97;;
5630;SDS011;2837;50.990;7.124;2022-11-15T07:50:26;154.57;;;8.20;;
5630;SDS011;2837;50.990;7.124;2022-11-15T07:52:55;153.37;;;7.77;;
5630;SDS011;2837;50.990;7.124;2022-11-15T07:55:25;154.37;;;7.37;;
5630;SDS011;2837;50.990;7.124;2022-11-15T07:57:53;153.10;;;7.20;;
5630;SDS011;2837;50.990;7.124;2022-11-15T08:00:25;153.07;;;7.57;;
5630;SDS011;2837;50.990;7.124;2022-11-15T08:02:50;153.67;;;7.83;;
5630;SDS011;2837;50.990;7.124;2022-11-15T08:05:16;152.73;;;7.30;;
5630;SDS011;2837;50.990;7.124;2022-11-15T08:07:41;152.37;;;7.20;;
5630;SDS011;2837;50.990;7.124;2022-11-15T08:10:07;152.40;;;7.13;;
5630;SDS011;2837;50.990;7.124;2022-11-15T08:12:33;152.80;;;7.00;;
5630;SDS011;2837;50.990;7.124;2022-11-15T08:14:59;153.37;;;7.60;;
5630;SDS011;2837;50.990;7.124;2022-11-15T08:17:25;155.80;;;7.67;;
5630;SDS011;2837;50.990;7.124;2022-11-15T08:19:51;153.43;;;7.60;;
5630;SDS011;2837;50.990;7.124;2022-11-15T08:22:16;152.53;;;7.00;;
5630;SDS011;2837;50.990;7.124;2022-11-15T08:24:43;153.30;;;7.50;;
5630;SDS011;2837;50.990;7.124;2022-11-15T08:27:09;153.30;;;7.30;;
5630;SDS011;2837;50.990;7.124;2022-11-15T08:29:40;152.43;;;7.93;;
5630;SDS011;2837;50.990;7.124;2022-11-15T08:32:07;156.50;;;8.13;;
5630;SDS011;2837;50.990;7.124;2022-11-15T08:34:32;153.53;;;7.70;;
5630;SDS011;2837;50.990;7.124;2022-11-15T08:36:58;152.80;;;7.40;;
5630;SDS011;2837;50.990;7.124;2022-11-15T08:39:24;152.03;;;7.40;;
5630;SDS011;2837;50.990;7.124;2022-11-15T08:41:49;152.77;;;7.80;;
5630;SDS011;2837;50.990;7.124;2022-11-15T08:44:15;154.67;;;7.63;;
5630;SDS011;2837;50.990;7.124;2022-11-15T08:46:40;152.67;;;7.60;;
5630;SDS011;2837;50.990;7.124;2022-11-15T08:49:06;156.63;;;7.93;;
5630;SDS011;2837;50.990;7.124;2022-11-15T08:51:31;152.77;;;7.50;;
5630;SDS011;2837;50.990;7.124;2022-11-15T08:53:57;152.80;;;7.30;;
5630;SDS011;2837;50.990;7.124;2022-11-15T08:56:23;152.40;;;6.90;;
5630;SDS011;2837;50.990;7.124;2022-11-15T08:58:48;153.67;;;7.20;;
5630;SDS011;2837;50.990;7.124;2022-11-15T09:01:14;154.07;;;7.37;;
5630;SDS011;2837;50.990;7.124;2022-11-15T09:03:42;152.57;;;7.90;;
5630;SDS011;2837;50.990;7.124;2022-11-15T09:06:08;154.70;;;8.00;;
5630;SDS011;2837;50.990;7.124;2022-11-15T09:08:34;153.87;;;7.10;;
5630;SDS011;2837;50.990;7.124;2022-11-15T09:11:02;153.47;;;7.37;;
5630;SDS011;2837;50.990;7.124;2022-11-15T09:13:29;153.57;;;7.93;;
5630;SDS011;2837;50.990;7.124;2022-11-15T09:15:58;152.57;;;7.70;;
5630;SDS011;2837;50.990;7.124;2022-11-15T09:18:27;154.40;;;8.50;;
5630;SDS011;2837;50.990;7.124;2022-11-15T09:20:56;152.23;;;7.87;;
5630;SDS011;2837;50.990;7.124;2022-11-15T09:23:23;154.00;;;7.97;;
5630;SDS011;2837;50.990;7.124;2022-11-15T09:25:50;154.23;;;7.50;;
5630;SDS011;2837;50.990;7.124;2022-11-15T09:28:17;153.40;;;7.70;;
5630;SDS011;2837;50.990;7.124;2022-11-15T09:30:43;153.07;;;8.07;;
5630;SDS011;2837;50.990;7.124;2022-11-15T09:33:08;154.13;;;7.80;;
5630;SDS011;2837;50.990;7.124;2022-11-15T09:35:35;152.30;;;7.10;;
5630;SDS011;2837;50.990;7.124;2022-11-15T09:38:01;152.57;;;7.73;;
5630;SDS011;2837;50.990;7.124;2022-11-15T09:40:27;152.90;;;7.37;;
5630;SDS011;2837;50.990;7.124;2022-11-15T09:45:52;152.43;;;7.50;;
5630;SDS011;2837;50.990;7.124;2022-11-15T09:51:02;153.37;;;8.27;;
5630;SDS011;2837;50.990;7.124;2022-11-15T09:53:32;154.37;;;8.00;;
5630;SDS011;2837;50.990;7.124;2022-11-15T09:56:12;152.07;;;7.70;;
5630;SDS011;2837;50.990;7.124;2022-11-15T10:04:37;152.60;;;7.40;;
5630;SDS011;2837;50.990;7.124;2022-11-15T10:12:08;152.70;;;7.80;;
5630;SDS011;2837;50.990;7.124;2022-11-15T10:14:35;152.50;;;7.10;;
5630;SDS011;2837;50.990;7.124;2022-11-15T10:19:46;152.07;;;7.37;;
5630;SDS011;2837;50.990;7.124;2022-11-15T10:22:36;152.33;;;7.10;;
5630;SDS011;2837;50.990;7.124;2022-11-15T10:28:01;152.20;;;7.33;;
5630;SDS011;2837;50.990;7.124;2022-11-15T10:30:39;152.77;;;7.70;;
5630;SDS011;2837;50.990;7.124;2022-11-15T10:38:49;153.30;;;7.53;;
5630;SDS011;2837;50.990;7.124;2022-11-15T10:41:19;152.27;;;7.93;;
5630;SDS011;2837;50.990;7.124;2022-11-15T10:46:44;152.20;;;7.60;;
5630;SDS011;2837;50.990;7.124;2022-11-15T10:49:17;152.50;;;7.37;;
5630;SDS011;2837;50.990;7.124;2022-11-15T10:54:20;151.97;;;6.70;;
5630;SDS011;2837;50.990;7.124;2022-11-15T10:56:51;151.57;;;7.47;;
5630;SDS011;2837;50.990;7.124;2022-11-15T10:59:23;152.00;;;7.43;;
5630;SDS011;2837;50.990;7.124;2022-11-15T11:01:54;153.37;;;7.67;;
5630;SDS011;2837;50.990;7.124;2022-11-15T11:04:20;151.90;;;7.40;;
5630;SDS011;2837;50.990;7.124;2022-11-15T11:06:53;154.10;;;8.03;;
5630;SDS011;2837;50.990;7.124;2022-11-15T11:11:58;152.20;;;7.40;;
5630;SDS011;2837;50.990;7.124;2022-11-15T11:14:25;150.30;;;6.70;;
5630;SDS011;2837;50.990;7.124;2022-11-15T11:23:00;153.53;;;7.50;;
5630;SDS011;2837;50.990;7.124;2022-11-15T11:25:41;151.07;;;7.03;;
5630;SDS011;2837;50.990;7.124;2022-11-15T11:28:13;150.80;;;7.17;;
5630;SDS011;2837;50.990;7.124;2022-11-15T11:31:18;151.10;;;7.10;;
5630;SDS011;2837;50.990;7.124;2022-11-15T11:42:17;151.27;;;7.30;;
5630;SDS011;2837;50.990;7.124;2022-11-15T11:47:39;151.70;;;7.20;;
5630;SDS011;2837;50.990;7.124;2022-11-15T11:50:41;156.27;;;7.07;;
5630;SDS011;2837;50.990;7.124;2022-11-15T11:53:12;150.90;;;6.97;;
5630;SDS011;2837;50.990;7.124;2022-11-15T11:55:45;150.70;;;6.47;;
5630;SDS011;2837;50.990;7.124;2022-11-15T11:58:22;151.43;;;7.43;;
5630;SDS011;2837;50.990;7.124;2022-11-15T12:03:36;151.00;;;7.30;;
5630;SDS011;2837;50.990;7.124;2022-11-15T12:06:23;151.77;;;7.07;;
5630;SDS011;2837;50.990;7.124;2022-11-15T12:09:17;150.37;;;6.90;;
5630;SDS011;2837;50.990;7.124;2022-11-15T12:11:59;150.87;;;7.70;;
5630;SDS011;2837;50.990;7.124;2022-11-15T12:14:40;151.40;;;6.90;;
5630;SDS011;2837;50.990;7.124;2022-11-15T12:17:13;151.07;;;7.33;;
5630;SDS011;2837;50.990;7.124;2022-11-15T12:19:42;149.97;;;6.60;;
5630;SDS011;2837;50.990;7.124;2022-11-15T12:22:21;151.57;;;7.10;;
5630;SDS011;2837;50.990;7.124;2022-11-15T12:25:02;153.63;;;7.33;;
5630;SDS011;2837;50.990;7.124;2022-11-15T12:27:53;150.47;;;7.40;;
5630;SDS011;2837;50.990;7.124;2022-11-15T12:30:22;152.27;;;7.30;;
5630;SDS011;2837;50.990;7.124;2022-11-15T12:33:00;150.73;;;7.57;;
5630;SDS011;2837;50.990;7.124;2022-11-15T12:35:27;155.27;;;7.67;;
5630;SDS011;2837;50.990;7.124;2022-11-15T12:38:04;150.63;;;7.20;;
5630;SDS011;2837;50.990;7.124;2022-11-15T12:40:38;150.77;;;7.50;;
5630;SDS011;2837;50.990;7.124;2022-11-15T12:43:38;151.30;;;7.80;;
5630;SDS011;2837;50.990;7.124;2022-11-15T12:46:05;150.07;;;7.13;;
5630;SDS011;2837;50.990;7.124;2022-11-15T12:51:02;150.37;;;7.40;;
5630;SDS011;2837;50.990;7.124;2022-11-15T12:53:29;151.17;;;7.50;;
5630;SDS011;2837;50.990;7.124;2022-11-15T12:58:28;154.63;;;8.17;;
5630;SDS011;2837;50.990;7.124;2022-11-15T13:11:57;150.40;;;8.23;;
5630;SDS011;2837;50.990;7.124;2022-11-15T13:17:35;151.37;;;8.83;;
5630;SDS011;2837;50.990;7.124;2022-11-15T13:27:52;150.67;;;8.10;;
5630;SDS011;2837;50.990;7.124;2022-11-15T13:30:24;152.27;;;8.33;;
5630;SDS011;2837;50.990;7.124;2022-11-15T13:32:51;151.77;;;9.17;;
5630;SDS011;2837;50.990;7.124;2022-11-15T13:35:21;151.20;;;8.40;;
5630;SDS011;2837;50.990;7.124;2022-11-15T13:37:48;151.87;;;8.90;;
5630;SDS011;2837;50.990;7.124;2022-11-15T13:42:44;158.83;;;8.83;;
5630;SDS011;2837;50.990;7.124;2022-11-15T13:45:12;151.73;;;8.87;;
5630;SDS011;2837;50.990;7.124;2022-11-15T13:47:40;155.97;;;7.93;;
5630;SDS011;2837;50.990;7.124;2022-11-15T13:50:06;152.30;;;8.77;;
5630;SDS011;2837;50.990;7.124;2022-11-15T13:52:36;153.40;;;9.00;;
5630;SDS011;2837;50.990;7.124;2022-11-15T13:55:16;151.17;;;8.43;;
5630;SDS011;2837;50.990;7.124;2022-11-15T13:57:46;151.77;;;8.80;;
5630;SDS011;2837;50.990;7.124;2022-11-15T14:00:30;151.20;;;8.50;;
5630;SDS011;2837;50.990;7.124;2022-11-15T14:03:07;151.57;;;9.00;;
5630;SDS011;2837;50.990;7.124;2022-11-15T14:06:15;151.33;;;8.53;;
5630;SDS011;2837;50.990;7.124;2022-11-15T14:09:00;154.67;;;9.37;;
5630;SDS011;2837;50.990;7.124;2022-11-15T14:11:28;151.67;;;8.83;;
5630;SDS011;2837;50.990;7.124;2022-11-15T14:13:59;152.67;;;8.70;;
5630;SDS011;2837;50.990;7.124;2022-11-15T14:16:39;150.10;;;8.00;;
5630;SDS011;2837;50.990;7.124;2022-11-15T14:24:33;151.47;;;8.53;;
5630;SDS011;2837;50.990;7.124;2022-11-15T14:30:00;151.67;;;8.83;;
5630;SDS011;2837;50.990;7.124;2022-11-15T14:32:27;152.03;;;9.47;;
5630;SDS011;2837;50.990;7.124;2022-11-15T14:34:55;151.43;;;8.80;;
5630;SDS011;2837;50.990;7.124;2022-11-15T14:37:29;151.57;;;8.63;;
5630;SDS011;2837;50.990;7.124;2022-11-15T14:40:00;150.67;;;8.00;;
5630;SDS011;2837;50.990;7.124;2022-11-15T14:42:30;152.03;;;9.27;;
5630;SDS011;2837;50.990;7.124;2022-11-15T14:44:56;151.17;;;8.63;;
5630;SDS011;2837;50.990;7.124;2022-11-15T14:47:21;151.17;;;8.40;;
5630;SDS011;2837;50.990;7.124;2022-11-15T14:49:47;152.47;;;8.90;;
5630;SDS011;2837;50.990;7.124;2022-11-15T14:52:19;151.10;;;8.77;;
5630;SDS011;2837;50.990;7.124;2022-11-15T14:54:52;152.27;;;9.00;;
5630;SDS011;2837;50.990;7.124;2022-11-15T14:57:18;150.47;;;8.60;;
5630;SDS011;2837;50.990;7.124;2022-11-15T14:59:44;151.03;;;8.30;;
5630;SDS011;2837;50.990;7.124;2022-11-15T15:02:20;150.87;;;8.93;;
5630;SDS011;2837;50.990;7.124;2022-11-15T15:04:47;152.27;;;9.30;;
5630;SDS011;2837;50.990;7.124;2022-11-15T15:07:13;152.53;;;9.33;;
5630;SDS011;2837;50.990;7.124;2022-11-15T15:09:39;151.77;;;8.37;;
5630;SDS011;2837;50.990;7.124;2022-11-15T15:12:08;151.43;;;8.80;;
5630;SDS011;2837;50.990;7.124;2022-11-15T15:14:46;152.50;;;9.17;;
5630;SDS011;2837;50.990;7.124;2022-11-15T15:17:13;152.20;;;9.17;;
5630;SDS011;2837;50.990;7.124;2022-11-15T15:19:39;152.23;;;9.37;;
5630;SDS011;2837;50.990;7.124;2022-11-15T15:22:04;152.37;;;8.80;;
5630;SDS011;2837;50.990;7.124;2022-11-15T15:24:30;150.87;;;8.20;;
5630;SDS011;2837;50.990;7.124;2022-11-15T15:26:56;152.17;;;8.60;;
5630;SDS011;2837;50.990;7.124;2022-11-15T15:29:22;151.67;;;8.27;;
5630;SDS011;2837;50.990;7.124;2022-11-15T15:31:47;151.00;;;8.33;;
5630;SDS011;2837;50.990;7.124;2022-11-15T15:34:13;151.40;;;7.87;;
5630;SDS011;2837;50.990;7.124;2022-11-15T15:36:39;151.60;;;8.23;;
5630;SDS011;2837;50.990;7.124;2022-11-15T15:39:04;150.90;;;8.40;;
5630;SDS011;2837;50.990;7.124;2022-11-15T15:41:30;151.57;;;7.90;;
5630;SDS011;2837;50.990;7.124;2022-11-15T15:43:55;151.07;;;8.63;;
5630;SDS011;2837;50.990;7.124;2022-11-15T15:46:21;151.90;;;8.70;;
5630;SDS011;2837;50.990;7.124;2022-11-15T15:48:46;153.20;;;8.50;;
5630;SDS011;2837;50.990;7.124;2022-11-15T15:51:12;151.50;;;8.10;;
5630;SDS011;2837;50.990;7.124;2022-11-15T15:53:38;151.00;;;8.40;;
5630;SDS011;2837;50.990;7.124;2022-11-15T15:56:04;151.40;;;8.77;;
5630;SDS011;2837;50.990;7.124;2022-11-15T15:58:32;151.67;;;8.40;;
5630;SDS011;2837;50.990;7.124;2022-11-15T16:00:58;151.30;;;8.40;;
5630;SDS011;2837;50.990;7.124;2022-11-15T16:03:24;151.27;;;8.50;;
5630;SDS011;2837;50.990;7.124;2022-11-15T16:05:50;151.47;;;8.30;;
5630;SDS011;2837;50.990;7.124;2022-11-15T16:08:20;151.10;;;7.97;;
5630;SDS011;2837;50.990;7.124;2022-11-15T16:10:47;152.40;;;8.50;;
5630;SDS011;2837;50.990;7.124;2022-11-15T16:13:13;150.93;;;7.60;;
5630;SDS011;2837;50.990;7.124;2022-11-15T16:15:39;151.87;;;8.63;;
5630;SDS011;2837;50.990;7.124;2022-11-15T16:18:06;151.57;;;8.23;;
5630;SDS011;2837;50.990;7.124;2022-11-15T16:23:07;151.30;;;8.13;;
5630;SDS011;2837;50.990;7.124;2022-11-15T16:25:48;153.90;;;8.43;;
5630;SDS011;2837;50.990;7.124;2022-11-15T16:30:45;154.67;;;8.40;;
5630;SDS011;2837;50.990;7.124;2022-11-15T16:33:11;151.87;;;8.60;;
5630;SDS011;2837;50.990;7.124;2022-11-15T16:35:37;152.10;;;8.47;;
5630;SDS011;2837;50.990;7.124;2022-11-15T16:38:02;151.20;;;7.70;;
5630;SDS011;2837;50.990;7.124;2022-11-15T16:40:29;151.07;;;8.20;;
5630;SDS011;2837;50.990;7.124;2022-11-15T16:42:56;151.73;;;8.40;;
5630;SDS011;2837;50.990;7.124;2022-11-15T16:45:23;151.80;;;8.90;;
5630;SDS011;2837;50.990;7.124;2022-11-15T16:47:50;151.00;;;7.80;;
5630;SDS011;2837;50.990;7.124;2022-11-15T16:50:24;154.60;;;8.50;;
5630;SDS011;2837;50.990;7.124;2022-11-15T16:52:52;151.93;;;8.10;;
5630;SDS011;2837;50.990;7.124;2022-11-15T16:55:20;151.87;;;8.00;;
5630;SDS011;2837;50.990;7.124;2022-11-15T16:57:46;151.60;;;7.70;;
5630;SDS011;2837;50.990;7.124;2022-11-15T17:00:12;151.63;;;8.10;;
5630;SDS011;2837;50.990;7.124;2022-11-15T17:02:42;152.17;;;8.33;;
5630;SDS011;2837;50.990;7.124;2022-11-15T17:05:09;154.77;;;8.50;;
5630;SDS011;2837;50.990;7.124;2022-11-15T17:07:34;152.07;;;8.57;;
5630;SDS011;2837;50.990;7.124;2022-11-15T17:10:00;153.50;;;8.23;;
5630;SDS011;2837;50.990;7.124;2022-11-15T17:12:25;151.17;;;8.40;;
5630;SDS011;2837;50.990;7.124;2022-11-15T17:14:51;155.47;;;8.60;;
5630;SDS011;2837;50.990;7.124;2022-11-15T17:17:16;152.10;;;8.00;;
5630;SDS011;2837;50.990;7.124;2022-11-15T17:19:42;151.87;;;8.33;;
5630;SDS011;2837;50.990;7.124;2022-11-15T17:22:07;152.37;;;8.10;;
5630;SDS011;2837;50.990;7.124;2022-11-15T17:24:33;152.90;;;8.70;;
5630;SDS011;2837;50.990;7.124;2022-11-15T17:26:58;153.10;;;8.67;;
5630;SDS011;2837;50.990;7.124;2022-11-15T17:29:24;150.70;;;7.67;;
5630;SDS011;2837;50.990;7.124;2022-11-15T17:31:49;151.53;;;8.37;;
5630;SDS011;2837;50.990;7.124;2022-11-15T17:34:15;151.77;;;8.77;;
5630;SDS011;2837;50.990;7.124;2022-11-15T17:36:41;152.20;;;8.33;;
5630;SDS011;2837;50.990;7.124;2022-11-15T17:39:06;151.67;;;8.10;;
5630;SDS011;2837;50.990;7.124;2022-11-15T17:41:32;153.33;;;8.80;;
5630;SDS011;2837;50.990;7.124;2022-11-15T17:43:58;151.97;;;8.07;;
5630;SDS011;2837;50.990;7.124;2022-11-15T17:46:24;152.57;;;8.93;;
5630;SDS011;2837;50.990;7.124;2022-11-15T17:48:50;151.37;;;8.70;;
5630;SDS011;2837;50.990;7.124;2022-11-15T17:51:16;152.60;;;8.97;;
5630;SDS011;2837;50.990;7.124;2022-11-15T17:53:46;151.37;;;8.10;;
5630;SDS011;2837;50.990;7.124;2022-11-15T17:56:14;151.87;;;8.57;;
5630;SDS011;2837;50.990;7.124;2022-11-15T17:58:50;151.60;;;8.63;;
5630;SDS011;2837;50.990;7.124;2022-11-15T18:03:53;152.50;;;8.73;;
5630;SDS011;2837;50.990;7.124;2022-11-15T18:06:20;152.17;;;9.13;;
5630;SDS011;2837;50.990;7.124;2022-11-15T18:08:47;152.63;;;9.30;;
5630;SDS011;2837;50.990;7.124;2022-11-15T18:11:16;153.70;;;9.17;;
5630;SDS011;2837;50.990;7.124;2022-11-15T18:13:44;152.47;;;8.80;;
5630;SDS011;2837;50.990;7.124;2022-11-15T18:16:13;152.77;;;9.10;;
5630;SDS011;2837;50.990;7.124;2022-11-15T18:18:40;153.77;;;9.50;;
5630;SDS011;2837;50.990;7.124;2022-11-15T18:21:10;153.47;;;8.60;;
5630;SDS011;2837;50.990;7.124;2022-11-15T18:23:41;151.97;;;8.53;;
5630;SDS011;2837;50.990;7.124;2022-11-15T18:26:08;151.07;;;7.80;;
5630;SDS011;2837;50.990;7.124;2022-11-15T18:28:37;151.70;;;8.20;;
5630;SDS011;2837;50.990;7.124;2022-11-15T18:31:26;153.67;;;8.97;;
5630;SDS011;2837;50.990;7.124;2022-11-15T18:33:51;152.60;;;8.80;;
5630;SDS011;2837;50.990;7.124;2022-11-15T18:36:19;153.40;;;8.53;;
5630;SDS011;2837;50.990;7.124;2022-11-15T18:38:46;152.53;;;8.60;;
5630;SDS011;2837;50.990;7.124;2022-11-15T18:41:13;152.87;;;8.50;;
5630;SDS011;2837;50.990;7.124;2022-11-15T18:43:42;152.80;;;8.10;;
5630;SDS011;2837;50.990;7.124;2022-11-15T18:46:09;152.97;;;7.90;;
5630;SDS011;2837;50.990;7.124;2022-11-15T18:48:37;153.37;;;8.57;;
5630;SDS011;2837;50.990;7.124;2022-11-15T18:51:04;157.30;;;8.60;;
5630;SDS011;2837;50.990;7.124;2022-11-15T18:53:31;153.80;;;9.33;;
5630;SDS011;2837;50.990;7.124;2022-11-15T18:55:59;153.63;;;8.80;;
5630;SDS011;2837;50.990;7.124;2022-11-15T18:58:27;151.83;;;8.40;;
5630;SDS011;2837;50.990;7.124;2022-11-15T19:00:58;153.77;;;8.07;;
5630;SDS011;2837;50.990;7.124;2022-11-15T19:03:25;152.10;;;8.07;;
5630;SDS011;2837;50.990;7.124;2022-11-15T19:05:51;152.33;;;7.80;;
5630;SDS011;2837;50.990;7.124;2022-11-15T19:08:16;152.60;;;8.40;;
5630;SDS011;2837;50.990;7.124;2022-11-15T19:10:42;154.17;;;8.10;;
5630;SDS011;2837;50.990;7.124;2022-11-15T19:13:07;155.50;;;8.53;;
5630;SDS011;2837;50.990;7.124;2022-11-15T19:15:33;154.10;;;8.77;;
5630;SDS011;2837;50.990;7.124;2022-11-15T19:17:58;153.17;;;8.30;;
5630;SDS011;2837;50.990;7.124;2022-11-15T19:20:25;153.47;;;8.90;;
5630;SDS011;2837;50.990;7.124;2022-11-15T19:22:51;154.50;;;8.73;;
5630;SDS011;2837;50.990;7.124;2022-11-15T19:25:17;153.87;;;8.97;;
5630;SDS011;2837;50.990;7.124;2022-11-15T19:27:43;155.57;;;8.97;;
5630;SDS011;2837;50.990;7.124;2022-11-15T19:30:09;153.67;;;8.83;;
5630;SDS011;2837;50.990;7.124;2022-11-15T19:32:35;152.57;;;8.33;;
5630;SDS011;2837;50.990;7.124;2022-11-15T19:35:00;154.90;;;8.73;;
5630;SDS011;2837;50.990;7.124;2022-11-15T19:37:26;154.50;;;8.43;;
5630;SDS011;2837;50.990;7.124;2022-11-15T19:39:51;155.90;;;8.97;;
5630;SDS011;2837;50.990;7.124;2022-11-15T19:42:17;153.33;;;8.70;;
5630;SDS011;2837;50.990;7.124;2022-11-15T19:44:42;152.57;;;7.67;;
5630;SDS011;2837;50.990;7.124;2022-11-15T19:47:08;153.57;;;8.70;;
5630;SDS011;2837;50.990;7.124;2022-11-15T19:49:34;152.60;;;7.93;;
5630;SDS011;2837;50.990;7.124;2022-11-15T19:51:59;154.77;;;8.27;;
5630;SDS011;2837;50.990;7.124;2022-11-15T19:54:25;154.17;;;8.90;;
5630;SDS011;2837;50.990;7.124;2022-11-15T19:56:50;152.70;;;7.87;;
5630;SDS011;2837;50.990;7.124;2022-11-15T19:59:16;153.40;;;8.40;;
5630;SDS011;2837;50.990;7.124;2022-11-15T20:01:41;154.03;;;8.67;;
5630;SDS011;2837;50.990;7.124;2022-11-15T20:04:07;154.77;;;9.00;;
5630;SDS011;2837;50.990;7.124;2022-11-15T20:06:35;154.27;;;8.70;;
5630;SDS011;2837;50.990;7.124;2022-11-15T20:09:03;153.40;;;8.53;;
5630;SDS011;2837;50.990;7.124;2022-11-15T20:11:29;152.60;;;8.10;;
5630;SDS011;2837;50.990;7.124;2022-11-15T20:13:58;152.77;;;8.07;;
5630;SDS011;2837;50.990;7.124;2022-11-15T20:16:26;154.17;;;8.30;;
5630;SDS011;2837;50.990;7.124;2022-11-15T20:18:52;152.67;;;8.13;;
5630;SDS011;2837;50.990;7.124;2022-11-15T20:21:18;152.87;;;8.23;;
5630;SDS011;2837;50.990;7.124;2022-11-15T20:23:44;154.03;;;8.70;;
5630;SDS011;2837;50.990;7.124;2022-11-15T20:26:09;153.60;;;8.43;;
5630;SDS011;2837;50.990;7.124;2022-11-15T20:28:36;153.37;;;8.83;;
5630;SDS011;2837;50.990;7.124;2022-11-15T20:31:02;152.60;;;7.73;;
5630;SDS011;2837;50.990;7.124;2022-11-15T20:33:29;153.33;;;8.37;;
5630;SDS011;2837;50.990;7.124;2022-11-15T20:35:54;152.97;;;8.40;;
5630;SDS011;2837;50.990;7.124;2022-11-15T20:38:20;155.00;;;9.00;;
5630;SDS011;2837;50.990;7.124;2022-11-15T20:40:47;153.90;;;8.47;;
5630;SDS011;2837;50.990;7.124;2022-11-15T20:43:14;152.73;;;7.97;;
5630;SDS011;2837;50.990;7.124;2022-11-15T20:45:45;154.63;;;9.40;;
5630;SDS011;2837;50.990;7.124;2022-11-15T20:48:12;152.73;;;8.20;;
5630;SDS011;2837;50.990;7.124;2022-11-15T20:50:38;155.27;;;8.33;;
5630;SDS011;2837;50.990;7.124;2022-11-15T20:53:05;156.30;;;9.23;;
5630;SDS011;2837;50.990;7.124;2022-11-15T20:55:30;154.97;;;8.53;;
5630;SDS011;2837;50.990;7.124;2022-11-15T20:57:56;156.40;;;8.80;;
5630;SDS011;2837;50.990;7.124;2022-11-15T21:00:21;154.87;;;8.87;;
5630;SDS011;2837;50.990;7.124;2022-11-15T21:02:49;153.20;;;8.50;;
5630;SDS011;2837;50.990;7.124;2022-11-15T21:05:16;153.17;;;8.50;;
5630;SDS011;2837;50.990;7.124;2022-11-15T21:07:42;153.67;;;8.27;;
5630;SDS011;2837;50.990;7.124;2022-11-15T21:10:08;153.80;;;8.83;;
5630;SDS011;2837;50.990;7.124;2022-11-15T21:12:52;152.40;;;7.80;;
5630;SDS011;2837;50.990;7.124;2022-11-15T21:15:18;153.37;;;8.27;;
5630;SDS011;2837;50.990;7.124;2022-11-15T21:17:43;155.70;;;7.90;;
5630;SDS011;2837;50.990;7.124;2022-11-15T21:20:09;153.47;;;8.53;;
5630;SDS011;2837;50.990;7.124;2022-11-15T21:22:35;153.23;;;7.83;;
5630;SDS011;2837;50.990;7.124;2022-11-15T21:25:01;153.97;;;8.53;;
5630;SDS011;2837;50.990;7.124;2022-11-15T21:27:26;153.20;;;8.50;;
5630;SDS011;2837;50.990;7.124;2022-11-15T21:29:52;153.60;;;7.47;;
5630;SDS011;2837;50.990;7.124;2022-11-15T21:32:17;152.57;;;7.67;;
5630;SDS011;2837;50.990;7.124;2022-11-15T21:34:43;153.40;;;8.50;;
5630;SDS011;2837;50.990;7.124;2022-11-15T21:37:09;154.90;;;8.63;;
5630;SDS011;2837;50.990;7.124;2022-11-15T21:39:35;152.87;;;7.47;;
5630;SDS011;2837;50.990;7.124;2022-11-15T21:42:01;152.07;;;7.80;;
5630;SDS011;2837;50.990;7.124;2022-11-15T21:44:27;154.37;;;8.37;;
5630;SDS011;2837;50.990;7.124;2022-11-15T21:46:52;152.97;;;7.63;;
5630;SDS011;2837;50.990;7.124;2022-11-15T21:49:18;154.87;;;8.10;;
5630;SDS011;2837;50.990;7.124;2022-11-15T21:51:44;157.70;;;8.10;;
5630;SDS011;2837;50.990;7.124;2022-11-15T21:54:10;153.17;;;8.83;;
5630;SDS011;2837;50.990;7.124;2022-11-15T21:56:36;152.97;;;7.87;;
5630;SDS011;2837;50.990;7.124;2022-11-15T21:59:01;153.13;;;8.23;;
